createdAt,value
2018-09-11T06:05:54.975Z,4.20
2018-09-11T06:08:24.586Z,4.23
2018-09-11T06:10:54.213Z,4.10
2018-09-11T06:13:24.814Z,4.30
2018-09-11T06:15:54.749Z,4.87
2018-09-11T06:18:24.742Z,4.30
2018-09-11T06:20:53.956Z,3.97
2018-09-11T06:23:23.191Z,4.50
2018-09-11T06:25:52.403Z,3.85
2018-09-11T06:28:21.543Z,3.67
2018-09-11T06:30:50.667Z,3.43
2018-09-11T06:33:19.797Z,3.43
2018-09-11T06:35:48.977Z,3.30
2018-09-11T06:38:18.137Z,3.60
2018-09-11T06:40:47.474Z,3.40
2018-09-11T06:43:16.795Z,3.37
2018-09-11T06:45:45.933Z,3.30
2018-09-11T06:48:15.056Z,3.17
2018-09-11T06:50:44.201Z,3.33
2018-09-11T06:53:13.400Z,3.07
2018-09-11T06:55:42.625Z,3.30
2018-09-11T06:58:11.795Z,3.73
2018-09-11T07:00:40.998Z,3.17
2018-09-11T07:03:10.251Z,3.40
2018-09-11T07:05:39.419Z,3.83
2018-09-11T07:08:08.534Z,3.17
2018-09-11T07:10:37.667Z,3.27
2018-09-11T07:13:07.528Z,3.50
2018-09-11T07:15:36.794Z,4.20
2018-09-11T07:18:05.830Z,3.57
2018-09-11T07:20:35.004Z,3.70
2018-09-11T07:23:04.233Z,2.97
2018-09-11T07:25:33.765Z,2.90
2018-09-11T07:28:02.820Z,3.27
2018-09-11T07:30:32.084Z,3.13
2018-09-11T07:33:01.154Z,3.43
2018-09-11T07:35:30.153Z,3.73
2018-09-11T07:37:59.277Z,3.10
2018-09-11T07:40:28.192Z,3.43
2018-09-11T07:42:57.435Z,3.20
2018-09-11T07:45:26.610Z,3.73
2018-09-11T07:47:55.629Z,2.97
2018-09-11T07:50:24.931Z,3.40
2018-09-11T07:52:54.005Z,3.80
2018-09-11T07:55:23.196Z,3.37
2018-09-11T07:57:52.278Z,3.63
2018-09-11T08:00:21.307Z,3.97
2018-09-11T08:02:50.320Z,3.63
2018-09-11T08:05:19.369Z,4.20
2018-09-11T08:07:48.714Z,3.57
2018-09-11T08:10:17.877Z,4.07
2018-09-11T08:12:46.723Z,4.10
2018-09-11T08:15:16.001Z,4.03
2018-09-11T08:17:45.043Z,4.33
2018-09-11T08:20:14.221Z,4.37
2018-09-11T08:22:43.356Z,3.73
2018-09-11T08:25:12.552Z,4.83
2018-09-11T08:27:41.721Z,4.50
2018-09-11T08:30:10.883Z,4.33
2018-09-11T08:32:40.186Z,4.50
2018-09-11T08:35:09.257Z,5.03
2018-09-11T08:37:38.338Z,4.13
2018-09-11T08:40:07.784Z,4.40
2018-09-11T08:42:36.958Z,4.43
2018-09-11T08:45:06.869Z,3.97
2018-09-11T08:47:36.137Z,3.87
2018-09-11T08:50:39.160Z,3.95
2018-09-11T08:53:08.925Z,4.10
2018-09-11T08:55:39.001Z,4.42
2018-09-11T08:58:09.350Z,4.35
2018-09-11T09:00:39.444Z,4.90
2018-09-11T09:03:09.301Z,4.23
2018-09-11T09:05:39.392Z,3.60
2018-09-11T09:08:09.361Z,3.80
2018-09-11T09:10:39.280Z,3.90
2018-09-11T09:13:09.358Z,3.50
2018-09-11T09:15:39.376Z,4.42
2018-09-11T09:18:09.615Z,3.70
2018-09-11T09:20:39.417Z,4.10
2018-09-11T09:23:09.524Z,3.77
2018-09-11T09:25:40.121Z,4.03
2018-09-11T09:28:10.756Z,3.90
2018-09-11T09:30:41.298Z,3.42
2018-09-11T09:33:11.481Z,3.02
2018-09-11T09:35:41.559Z,3.60
2018-09-11T09:38:11.769Z,3.25
2018-09-11T09:40:42.169Z,3.60
2018-09-11T09:43:12.260Z,3.40
2018-09-11T09:45:41.980Z,3.83
2018-09-11T09:48:12.178Z,3.50
2018-09-11T09:50:42.184Z,3.10
2018-09-11T09:53:12.620Z,3.58
2018-09-11T09:55:43.060Z,3.50
2018-09-11T09:58:13.213Z,3.63
2018-09-11T10:00:47.473Z,3.40
2018-09-11T10:03:18.536Z,3.40
2018-09-11T10:05:48.738Z,3.23
2018-09-11T11:03:08.787Z,3.58
2018-09-11T11:05:38.611Z,3.37
2018-09-11T11:08:08.548Z,3.30
2018-09-11T11:10:38.249Z,3.97
2018-09-11T11:13:08.411Z,3.40
2018-09-11T11:15:38.571Z,3.17
2018-09-11T11:18:08.719Z,3.80
2018-09-11T11:20:40.136Z,3.53
2018-09-11T11:23:10.084Z,3.60
2018-09-11T11:25:40.339Z,3.20
2018-09-11T11:28:10.493Z,3.60
2018-09-11T11:30:40.999Z,3.23
2018-09-11T11:33:11.282Z,3.40
2018-09-11T11:35:41.246Z,4.20
2018-09-11T11:38:11.714Z,3.75
2018-09-11T11:40:42.074Z,3.87
2018-09-11T11:43:13.018Z,4.07
2018-09-11T11:45:43.685Z,3.80
2018-09-11T11:48:13.663Z,3.87
2018-09-11T11:50:43.526Z,3.90
2018-09-11T11:53:13.451Z,3.70
2018-09-11T11:55:43.599Z,3.73
2018-09-11T11:58:14.199Z,3.70
2018-09-11T12:00:44.380Z,3.20
2018-09-11T12:03:14.517Z,3.75
2018-09-11T12:05:45.201Z,3.57
2018-09-11T12:08:15.211Z,3.22
2018-09-11T12:10:45.658Z,3.40
2018-09-11T12:13:16.084Z,4.23
2018-09-11T12:15:46.071Z,3.50
2018-09-11T12:18:16.956Z,3.53
2018-09-11T12:20:46.974Z,3.10
2018-09-11T12:23:16.781Z,3.95
2018-09-11T12:25:46.719Z,3.67
2018-09-11T12:28:16.909Z,3.30
2018-09-11T12:30:47.567Z,3.50
2018-09-11T12:33:17.385Z,3.35
2018-09-11T12:35:47.440Z,3.13
2018-09-11T12:38:17.518Z,3.27
2018-09-11T12:40:47.750Z,3.60
2018-09-11T12:43:17.659Z,3.77
2018-09-11T12:45:47.635Z,3.80
2018-09-11T12:48:18.046Z,3.70
2018-09-11T12:50:48.077Z,4.33
2018-09-11T12:53:17.882Z,3.87
2018-09-11T12:55:47.785Z,3.90
2018-09-11T12:58:18.072Z,3.85
2018-09-11T13:00:48.101Z,4.20
2018-09-11T13:03:18.106Z,3.65
2018-09-11T13:05:49.002Z,4.72
2018-09-11T13:08:19.368Z,4.13
2018-09-11T13:10:49.363Z,4.25
2018-09-11T13:13:19.181Z,4.60
2018-09-11T13:15:49.426Z,4.20
2018-09-11T13:18:19.651Z,4.65
2018-09-11T13:20:49.335Z,4.33
2018-09-11T13:23:19.772Z,5.28
2018-09-11T13:25:50.142Z,4.37
2018-09-11T13:28:20.003Z,5.20
2018-09-11T13:30:49.945Z,5.55
2018-09-11T13:33:20.484Z,5.72
2018-09-11T13:35:50.226Z,6.17
2018-09-11T13:38:21.027Z,5.87
2018-09-11T13:40:51.109Z,6.17
2018-09-11T13:43:21.123Z,6.22
2018-09-11T13:45:51.148Z,7.58
2018-09-11T13:48:21.234Z,7.67
2018-09-11T13:50:51.427Z,7.47
2018-09-11T13:53:21.635Z,7.60
2018-09-11T13:55:51.547Z,8.30
2018-09-11T13:58:21.384Z,9.40
2018-09-11T14:00:51.128Z,8.30
2018-09-11T14:03:20.867Z,9.18
2018-09-11T14:05:50.953Z,9.23
2018-09-11T14:08:21.039Z,9.45
2018-09-11T14:10:51.165Z,10.18
2018-09-11T14:13:21.127Z,9.68
2018-09-11T14:15:51.288Z,9.55
2018-09-11T14:18:21.425Z,9.60
2018-09-11T14:20:51.675Z,10.48
2018-09-11T14:23:22.648Z,9.50
2018-09-11T14:25:52.533Z,8.67
2018-09-11T14:28:22.846Z,8.30
2018-09-11T14:30:52.844Z,7.50
2018-09-11T14:33:23.122Z,6.90
2018-09-11T14:35:53.362Z,5.83
2018-09-11T14:38:23.585Z,5.87
2018-09-11T14:40:53.684Z,5.72
2018-09-11T14:43:23.425Z,5.97
2018-09-11T14:45:53.507Z,5.10
2018-09-11T14:48:23.832Z,5.05
2018-09-11T14:50:54.255Z,4.87
2018-09-11T14:53:24.312Z,4.67
2018-09-11T14:55:55.114Z,4.62
2018-09-11T14:58:24.799Z,4.42
2018-09-11T15:00:55.400Z,4.12
2018-09-11T15:03:25.353Z,4.70
2018-09-11T15:05:55.591Z,4.40
2018-09-11T15:08:25.224Z,4.05
2018-09-11T15:10:55.391Z,4.33
